createdAt,value
2023-04-10T00:00:38.386Z,22.92
2023-04-10T00:01:40.522Z,22.93
2023-04-10T00:02:42.761Z,22.69
2023-04-10T00:03:44.904Z,23.22
2023-04-10T00:04:47.099Z,22.84
2023-04-10T00:05:48.896Z,23.12
2023-04-10T00:06:50.952Z,23.08
2023-04-10T00:07:53.558Z,22.78
2023-04-10T00:08:55.333Z,22.70
2023-04-10T00:09:57.129Z,23.00
2023-04-10T00:10:58.949Z,23.03
2023-04-10T00:12:00.859Z,22.72
2023-04-10T00:13:03.690Z,23.13
2023-04-10T00:14:05.537Z,22.57
2023-04-10T00:15:08.495Z,22.75
2023-04-10T00:16:11.138Z,22.98
2023-04-10T00:17:13.040Z,23.04
2023-04-10T00:18:14.796Z,22.88
2023-04-10T00:19:17.411Z,22.72
2023-04-10T00:20:19.174Z,22.83
2023-04-10T00:21:20.937Z,22.87
2023-04-10T00:22:22.828Z,22.87
2023-04-10T00:23:26.316Z,22.99
2023-04-10T00:24:28.198Z,22.89
2023-04-10T00:25:30.001Z,23.02
2023-04-10T00:26:31.818Z,22.65
2023-04-10T00:27:33.593Z,22.85
2023-04-10T00:28:38.181Z,22.57
2023-04-10T00:29:40.394Z,23.04
2023-04-10T00:30:42.195Z,22.81
2023-04-10T00:31:44.348Z,22.90
2023-04-10T00:32:46.258Z,23.10
2023-04-10T00:33:48.115Z,22.66
2023-04-10T00:34:50.270Z,23.02
2023-04-10T00:35:52.073Z,23.00
2023-04-10T00:36:54.947Z,22.46
2023-04-10T00:37:57.799Z,22.65
2023-04-10T00:38:59.664Z,22.99
2023-04-10T00:40:01.727Z,22.93
2023-04-10T00:41:03.757Z,23.21
2023-04-10T00:42:09.455Z,22.95
2023-04-10T00:43:11.401Z,22.61
2023-04-10T00:44:13.211Z,22.71
2023-04-10T00:45:15.040Z,22.65
2023-04-10T00:46:17.430Z,23.02
2023-04-10T00:47:19.644Z,22.57
2023-04-10T00:48:21.606Z,22.93
2023-04-10T00:49:23.543Z,22.62
2023-04-10T00:50:25.593Z,22.55
2023-04-10T00:51:27.429Z,22.46
2023-04-10T00:52:29.277Z,22.76
2023-04-10T00:53:32.199Z,23.02
2023-04-10T00:54:36.252Z,22.71
2023-04-10T00:55:38.406Z,23.15
2023-04-10T00:56:40.472Z,22.66
2023-04-10T00:57:47.203Z,22.70
2023-04-10T00:58:49.022Z,22.62
2023-04-10T00:59:52.236Z,22.78
2023-04-10T01:00:56.428Z,22.56
2023-04-10T01:01:59.204Z,22.49
2023-04-10T01:03:01.717Z,22.68
2023-04-10T01:04:04.157Z,22.94
2023-04-10T01:05:06.915Z,22.65
2023-04-10T01:06:36.724Z,22.83
2023-04-10T01:08:14.712Z,22.83
2023-04-10T01:09:55.309Z,22.85
2023-04-10T01:11:13.605Z,22.77
2023-04-10T01:12:33.743Z,22.70
2023-04-10T01:13:38.631Z,22.40
2023-04-10T01:15:10.855Z,22.61
2023-04-10T01:16:36.204Z,22.98
2023-04-10T01:18:08.967Z,22.44
2023-04-10T01:19:22.008Z,22.47
2023-04-10T01:20:26.811Z,22.92
2023-04-10T01:21:32.144Z,22.70
2023-04-10T01:23:05.874Z,22.58
2023-04-10T01:24:55.498Z,22.88
2023-04-10T01:26:03.354Z,22.25
2023-04-10T01:27:16.716Z,22.34
2023-04-10T01:28:41.236Z,22.67
2023-04-10T01:29:48.077Z,22.70
2023-04-10T01:30:57.381Z,22.51
2023-04-10T01:32:05.075Z,22.42
2023-04-10T01:33:10.528Z,23.04
2023-04-10T01:34:17.355Z,22.48
2023-04-10T01:35:19.965Z,22.82
2023-04-10T01:36:28.161Z,22.48
2023-04-10T01:37:31.898Z,22.80
2023-04-10T01:38:36.385Z,22.91
2023-04-10T01:39:41.764Z,22.86
2023-04-10T01:40:50.195Z,22.55
2023-04-10T01:42:01.231Z,22.74
2023-04-10T01:43:12.937Z,22.54
2023-04-10T01:44:27.321Z,22.66
2023-04-10T01:45:29.402Z,22.60
2023-04-10T01:46:33.006Z,23.08
2023-04-10T01:47:35.283Z,22.77
2023-04-10T01:48:37.587Z,22.67
2023-04-10T01:49:44.583Z,22.70
2023-04-10T01:50:47.948Z,22.49
2023-04-10T01:51:52.020Z,22.57
2023-04-10T01:52:54.680Z,23.15
2023-04-10T01:53:59.818Z,22.61
2023-04-10T01:55:04.583Z,22.51
2023-04-10T01:56:13.701Z,22.77
2023-04-10T01:57:21.794Z,22.95
2023-04-10T01:58:30.680Z,22.47
2023-04-10T01:59:33.811Z,22.71
2023-04-10T02:00:45.669Z,22.42
2023-04-10T02:01:49.234Z,22.57
2023-04-10T02:02:52.195Z,22.67
2023-04-10T02:03:54.353Z,22.97
2023-04-10T02:04:56.743Z,22.64
2023-04-10T02:06:26.112Z,22.66
2023-04-10T02:07:36.128Z,22.87
2023-04-10T02:08:42.793Z,22.43
2023-04-10T02:10:24.938Z,22.46
2023-04-10T02:11:49.476Z,22.69
2023-04-10T02:12:55.725Z,22.41
2023-04-10T02:14:02.234Z,22.41
2023-04-10T02:15:06.651Z,22.54
2023-04-10T02:16:09.781Z,22.71
2023-04-10T02:17:16.190Z,22.61
2023-04-10T02:18:19.524Z,22.96
2023-04-10T02:19:23.836Z,22.78
2023-04-10T02:20:26.682Z,22.99
2023-04-10T02:21:29.088Z,22.96
2023-04-10T02:22:31.500Z,22.97
2023-04-10T02:23:33.654Z,23.08
2023-04-10T02:24:35.928Z,22.84
2023-04-10T02:25:37.869Z,23.06
2023-04-10T02:26:51.737Z,22.89
2023-04-10T02:27:53.534Z,22.80
2023-04-10T02:28:55.946Z,23.01
2023-04-10T02:29:57.765Z,22.67
2023-04-10T02:30:59.660Z,23.02
2023-04-10T02:32:02.034Z,22.72
2023-04-10T02:33:04.000Z,22.58
2023-04-10T02:34:07.296Z,22.86
2023-04-10T02:35:09.253Z,22.54
2023-04-10T02:36:13.138Z,22.85
2023-04-10T02:37:15.016Z,22.86
2023-04-10T02:38:17.485Z,22.99
2023-04-10T02:39:19.497Z,22.93
2023-04-10T02:40:24.952Z,22.86
2023-04-10T02:41:41.195Z,22.46
2023-04-10T02:42:43.377Z,22.58
2023-04-10T02:43:46.296Z,22.63
2023-04-10T02:44:48.773Z,22.66
2023-04-10T02:45:51.414Z,22.60
2023-04-10T02:47:00.747Z,22.59
2023-04-10T02:48:06.471Z,22.38
2023-04-10T02:49:08.365Z,22.86
2023-04-10T02:50:10.862Z,22.70
2023-04-10T02:51:16.063Z,22.68
2023-04-10T02:52:18.027Z,22.58
2023-04-10T02:53:20.236Z,22.72
2023-04-10T02:54:22.707Z,22.64
2023-04-10T02:55:24.726Z,23.02
2023-04-10T02:56:27.263Z,22.67
2023-04-10T02:57:29.149Z,22.66
2023-04-10T02:58:31.608Z,22.64
2023-04-10T02:59:34.686Z,22.84
2023-04-10T03:00:39.447Z,22.86
2023-04-10T03:01:52.432Z,23.30
2023-04-10T03:02:55.207Z,22.43
2023-04-10T03:03:58.947Z,22.45
2023-04-10T03:05:08.892Z,22.72
2023-04-10T03:06:11.160Z,22.54
2023-04-10T03:07:14.852Z,22.91
2023-04-10T03:08:17.617Z,22.64
2023-04-10T03:09:20.051Z,22.56
2023-04-10T03:10:22.123Z,22.94
2023-04-10T03:11:24.018Z,22.60
2023-04-10T03:12:25.842Z,22.81
2023-04-10T03:13:27.794Z,22.84
2023-04-10T03:14:29.743Z,22.87
2023-04-10T03:15:32.370Z,22.64
2023-04-10T03:16:34.580Z,22.73
2023-04-10T03:17:38.812Z,22.66
2023-04-10T03:18:41.583Z,22.62
2023-04-10T03:19:43.544Z,22.65
2023-04-10T03:20:45.420Z,22.72
2023-04-10T03:21:47.330Z,22.74
2023-04-10T03:22:49.184Z,22.59
2023-04-10T03:23:51.444Z,23.04
2023-04-10T03:24:53.324Z,22.86
2023-04-10T03:25:55.302Z,22.80
2023-04-10T03:27:01.590Z,22.58
2023-04-10T03:28:03.582Z,22.69
2023-04-10T03:29:06.266Z,22.94
2023-04-10T03:30:09.738Z,22.73
2023-04-10T03:31:15.573Z,22.70
2023-04-10T03:32:19.187Z,22.64
2023-04-10T03:33:21.232Z,22.93
2023-04-10T03:34:23.421Z,22.65
2023-04-10T03:35:25.330Z,22.78
2023-04-10T03:36:27.600Z,22.97
2023-04-10T03:37:29.454Z,22.55
2023-04-10T03:38:31.238Z,22.53
2023-04-10T03:39:33.693Z,22.74
2023-04-10T03:40:35.947Z,22.79
2023-04-10T03:41:39.192Z,22.98
2023-04-10T03:42:41.261Z,22.77
2023-04-10T03:43:43.260Z,22.67
2023-04-10T03:44:45.054Z,22.75
2023-04-10T03:45:47.343Z,22.70
2023-04-10T03:46:50.051Z,22.75
2023-04-10T03:47:53.175Z,22.99
2023-04-10T03:48:55.845Z,22.57
2023-04-10T03:49:59.299Z,23.05
2023-04-10T03:51:02.569Z,22.62
2023-04-10T03:52:04.567Z,22.99
2023-04-10T03:53:06.539Z,22.86
2023-04-10T03:54:08.397Z,22.89
2023-04-10T03:55:10.478Z,22.73
2023-04-10T03:56:12.415Z,22.72
2023-04-10T03:57:14.377Z,23.04
2023-04-10T03:58:16.187Z,22.98
2023-04-10T03:59:17.979Z,22.93
2023-04-10T04:00:20.700Z,22.77
2023-04-10T04:01:23.053Z,22.93
2023-04-10T04:02:34.617Z,22.91
2023-04-10T04:03:37.019Z,22.72
2023-04-10T04:04:55.356Z,22.77
2023-04-10T04:06:15.616Z,22.57
2023-04-10T04:07:40.581Z,22.95
2023-04-10T04:09:07.109Z,22.81
2023-04-10T04:10:34.988Z,22.48
2023-04-10T04:11:59.348Z,22.65
2023-04-10T04:13:28.295Z,22.36
2023-04-10T04:14:41.294Z,22.81
2023-04-10T04:16:06.854Z,22.57
2023-04-10T04:17:18.386Z,22.45
2023-04-10T04:18:49.695Z,22.91
2023-04-10T04:20:09.097Z,22.96
2023-04-10T04:21:16.700Z,22.99
2023-04-10T04:22:35.528Z,22.72
2023-04-10T04:24:00.086Z,23.05
2023-04-10T04:25:24.904Z,22.82
2023-04-10T04:26:45.512Z,22.62
2023-04-10T04:28:07.608Z,23.08
2023-04-10T04:29:15.774Z,22.94
2023-04-10T04:30:37.885Z,22.91
2023-04-10T04:32:08.401Z,22.78
2023-04-10T04:33:16.629Z,23.08
2023-04-10T04:34:31.880Z,22.86
2023-04-10T04:36:03.018Z,22.60
2023-04-10T04:37:31.255Z,22.65
2023-04-10T04:38:56.296Z,22.94
2023-04-10T04:40:04.513Z,23.04
2023-04-10T04:41:11.525Z,22.78
2023-04-10T04:42:33.588Z,22.81
2023-04-10T04:43:49.570Z,22.87
2023-04-10T04:45:17.965Z,23.04
2023-04-10T04:46:39.891Z,22.95
2023-04-10T04:48:05.716Z,23.03
2023-04-10T04:49:23.914Z,22.91
2023-04-10T04:50:44.300Z,23.30
2023-04-10T04:52:11.478Z,22.82
2023-04-10T04:53:36.996Z,23.29
2023-04-10T04:55:05.386Z,23.11
2023-04-10T04:56:30.509Z,23.26
2023-04-10T04:57:35.225Z,23.28
2023-04-10T04:58:39.560Z,23.09
2023-04-10T04:59:51.046Z,23.12
2023-04-10T05:01:13.024Z,23.14
2023-04-10T05:02:53.095Z,23.38
2023-04-10T05:04:30.686Z,23.09
2023-04-10T05:06:01.584Z,23.13
2023-04-10T05:07:41.882Z,23.18
2023-04-10T05:09:04.549Z,23.61
2023-04-10T05:10:20.981Z,23.05
2023-04-10T05:11:45.009Z,23.39
2023-04-10T05:13:02.906Z,23.13
2023-04-10T05:14:22.386Z,23.07
2023-04-10T05:15:36.225Z,23.10
2023-04-10T05:17:02.951Z,23.00
2023-04-10T05:18:31.455Z,23.33
2023-04-10T05:19:40.506Z,23.30
2023-04-10T05:21:11.613Z,22.70
2023-04-10T05:22:36.957Z,23.12
2023-04-10T05:23:50.119Z,23.07
2023-04-10T05:25:18.091Z,23.03
2023-04-10T05:26:39.537Z,23.13
2023-04-10T05:28:07.679Z,22.96
2023-04-10T05:29:41.432Z,22.66
2023-04-10T05:30:50.498Z,22.78
2023-04-10T05:32:15.530Z,23.22
2023-04-10T05:33:28.467Z,22.71
2023-04-10T05:34:46.454Z,22.70
2023-04-10T05:36:08.443Z,22.76
2023-04-10T05:37:30.664Z,22.58
2023-04-10T05:38:42.000Z,22.72
2023-04-10T05:39:52.093Z,22.70
2023-04-10T05:40:59.580Z,23.08
2023-04-10T05:42:13.491Z,22.64
2023-04-10T05:43:24.992Z,22.53
2023-04-10T05:44:45.656Z,22.81
2023-04-10T05:46:06.425Z,22.61
2023-04-10T05:47:43.229Z,22.28
2023-04-10T05:49:05.445Z,22.33
2023-04-10T05:50:25.800Z,22.39
2023-04-10T05:51:50.462Z,22.71
2023-04-10T05:53:14.934Z,22.13
2023-04-10T05:54:35.303Z,22.31
2023-04-10T05:56:03.153Z,22.28
2023-04-10T05:57:18.844Z,22.09
2023-04-10T05:58:20.738Z,22.31
2023-04-10T05:59:41.256Z,22.27
2023-04-10T06:01:15.120Z,22.45
2023-04-10T06:02:28.226Z,22.35
2023-04-10T06:03:31.060Z,22.32
2023-04-10T06:04:36.763Z,22.40
2023-04-10T06:05:39.033Z,22.12
2023-04-10T06:06:42.623Z,22.42
2023-04-10T06:07:45.923Z,22.51
2023-04-10T06:08:49.938Z,21.95
2023-04-10T06:09:52.220Z,22.39
2023-04-10T06:10:54.562Z,22.33
2023-04-10T06:11:56.791Z,22.03
2023-04-10T06:12:59.148Z,22.19
2023-04-10T06:14:02.185Z,22.21
2023-04-10T06:15:18.173Z,22.40
2023-04-10T06:16:21.508Z,22.25
2023-04-10T06:17:25.945Z,22.24
2023-04-10T06:18:28.334Z,22.05
2023-04-10T06:19:30.444Z,22.26
2023-04-10T06:20:32.296Z,22.52
2023-04-10T06:21:34.068Z,22.68
2023-04-10T06:22:36.052Z,22.51
2023-04-10T06:23:37.973Z,22.66
2023-04-10T06:24:39.752Z,22.46
2023-04-10T06:25:41.864Z,22.28
2023-04-10T06:26:43.697Z,22.44
2023-04-10T06:27:45.716Z,22.23
2023-04-10T06:28:48.337Z,22.10
2023-04-10T06:29:51.351Z,22.46
2023-04-10T06:30:57.586Z,22.50
2023-04-10T06:32:06.176Z,21.89
2023-04-10T06:33:12.158Z,22.32
2023-04-10T06:34:17.837Z,22.14
2023-04-10T06:35:40.044Z,22.33
2023-04-10T06:36:42.588Z,22.50
2023-04-10T06:37:44.466Z,22.19
2023-04-10T06:38:46.312Z,22.45
2023-04-10T06:39:48.628Z,22.08
2023-04-10T06:40:50.484Z,22.33
2023-04-10T06:41:52.275Z,22.54
2023-04-10T06:43:12.238Z,22.32
2023-04-10T06:44:14.988Z,22.83
2023-04-10T06:45:16.765Z,22.35
2023-04-10T06:46:18.749Z,22.29
2023-04-10T06:47:20.804Z,22.24
2023-04-10T06:48:22.605Z,22.67
2023-04-10T06:49:24.456Z,22.24
2023-04-10T06:50:26.356Z,22.48
2023-04-10T06:51:28.334Z,22.48
2023-04-10T06:52:30.104Z,22.65
2023-04-10T06:53:31.894Z,22.67
2023-04-10T06:54:33.664Z,22.64
2023-04-10T06:55:35.436Z,22.72
2023-04-10T06:56:37.345Z,22.49
2023-04-10T06:57:39.986Z,22.55
2023-04-10T06:58:41.816Z,22.84
2023-04-10T06:59:43.719Z,22.91
2023-04-10T07:00:45.707Z,22.49
2023-04-10T07:01:47.581Z,22.74
2023-04-10T07:02:49.659Z,22.88
2023-04-10T07:03:51.543Z,22.62
2023-04-10T07:04:53.777Z,22.78
2023-04-10T07:05:55.626Z,22.95
2023-04-10T07:06:57.617Z,22.39
2023-04-10T07:07:59.480Z,22.84
2023-04-10T07:09:01.264Z,22.88
2023-04-10T07:10:03.610Z,22.75
2023-04-10T07:11:06.021Z,22.97
2023-04-10T07:12:08.219Z,22.52
2023-04-10T07:13:10.005Z,22.96
2023-04-10T07:14:12.036Z,22.94
2023-04-10T07:15:13.868Z,22.94
2023-04-10T07:16:17.140Z,22.96
2023-04-10T07:17:19.048Z,22.76
2023-04-10T07:18:21.087Z,22.54
2023-04-10T07:19:22.985Z,22.65
2023-04-10T07:20:24.959Z,22.91
2023-04-10T07:21:27.312Z,23.04
2023-04-10T07:22:29.157Z,22.96
2023-04-10T07:23:31.072Z,22.80
2023-04-10T07:24:32.915Z,22.50
2023-04-10T07:25:34.667Z,22.47
2023-04-10T07:26:36.501Z,22.78
2023-04-10T07:27:38.322Z,22.27
2023-04-10T07:28:40.117Z,22.45
2023-04-10T07:29:41.949Z,22.68
2023-04-10T07:30:43.850Z,22.44
2023-04-10T07:31:46.004Z,22.52
2023-04-10T07:32:48.202Z,22.72
2023-04-10T07:33:50.332Z,22.51
2023-04-10T07:34:52.420Z,22.87
2023-04-10T07:35:54.345Z,22.14
2023-04-10T07:36:56.156Z,23.00
2023-04-10T07:37:58.028Z,22.66
2023-04-10T07:39:00.113Z,22.37
2023-04-10T07:40:02.745Z,22.46
2023-04-10T07:41:05.230Z,22.74
2023-04-10T07:42:07.213Z,22.38
2023-04-10T07:43:08.968Z,22.63
2023-04-10T07:44:10.843Z,22.94
2023-04-10T07:45:12.794Z,22.67
2023-04-10T07:46:16.527Z,22.43
2023-04-10T07:47:18.438Z,22.94
2023-04-10T07:48:20.407Z,22.49
2023-04-10T07:49:23.312Z,22.78
2023-04-10T07:50:25.375Z,22.72
2023-04-10T07:51:27.755Z,22.46
2023-04-10T07:52:29.573Z,23.01
2023-04-10T07:53:31.440Z,22.61
2023-04-10T07:54:34.731Z,22.67
2023-04-10T07:55:43.393Z,22.79
2023-04-10T07:56:45.265Z,22.63
2023-04-10T07:57:47.084Z,22.56
2023-04-10T07:58:49.589Z,22.91
2023-04-10T07:59:51.360Z,23.00
2023-04-10T08:00:53.283Z,22.59
2023-04-10T08:01:55.875Z,22.96
2023-04-10T08:02:58.069Z,23.20
2023-04-10T08:04:02.900Z,22.57
2023-04-10T08:05:07.481Z,22.66
2023-04-10T08:06:10.064Z,22.87
2023-04-10T08:07:12.024Z,22.56
2023-04-10T08:08:15.300Z,22.64
2023-04-10T08:09:17.187Z,22.86
2023-04-10T08:10:19.181Z,23.00
2023-04-10T08:11:27.504Z,23.03
2023-04-10T08:12:29.329Z,22.82
2023-04-10T08:13:31.055Z,23.14
2023-04-10T08:14:32.812Z,22.99
2023-04-10T08:15:34.762Z,22.78
2023-04-10T08:16:36.862Z,22.97
2023-04-10T08:17:38.766Z,23.11
2023-04-10T08:18:40.607Z,22.73
2023-04-10T08:19:43.528Z,22.78
2023-04-10T08:20:45.497Z,23.03
2023-04-10T08:21:47.327Z,22.69
2023-04-10T08:22:49.136Z,22.70
2023-04-10T08:23:51.791Z,22.60
2023-04-10T08:24:53.692Z,22.96
2023-04-10T08:25:55.516Z,23.01
2023-04-10T08:26:57.370Z,23.15
2023-04-10T08:28:00.544Z,22.94
2023-04-10T08:29:02.424Z,22.91
2023-04-10T08:30:04.857Z,23.13
2023-04-10T08:31:07.180Z,22.82
2023-04-10T08:32:09.106Z,22.90
2023-04-10T08:33:10.875Z,22.87
2023-04-10T08:34:12.692Z,22.90
2023-04-10T08:35:14.543Z,23.28
2023-04-10T08:36:19.607Z,22.78
2023-04-10T08:37:22.001Z,23.25
2023-04-10T08:38:25.117Z,23.21
2023-04-10T08:39:26.954Z,23.06
2023-04-10T08:40:28.905Z,23.20
2023-04-10T08:41:30.989Z,23.01
2023-04-10T08:42:34.508Z,23.54
2023-04-10T08:43:36.460Z,23.32
2023-04-10T08:44:39.187Z,23.45
2023-04-10T08:45:41.775Z,23.37
2023-04-10T08:46:45.496Z,23.25
2023-04-10T08:47:50.731Z,23.72
2023-04-10T08:48:59.568Z,23.18
2023-04-10T08:50:06.511Z,23.24
2023-04-10T08:51:19.491Z,23.59
2023-04-10T08:52:24.627Z,23.53
2023-04-10T08:53:31.250Z,23.89
2023-04-10T08:54:35.786Z,23.21
2023-04-10T08:55:39.501Z,23.64
2023-04-10T08:56:46.717Z,23.58
2023-04-10T08:57:57.977Z,23.70
2023-04-10T08:59:03.807Z,23.52
2023-04-10T09:01:28.674Z,22.89
2023-04-10T09:02:30.668Z,23.08
2023-04-10T09:03:33.090Z,23.12
2023-04-10T09:04:35.086Z,23.14
2023-04-10T09:05:37.332Z,23.59
2023-04-10T09:06:39.543Z,23.09
2023-04-10T09:07:41.577Z,23.20
2023-04-10T09:08:43.355Z,23.63
2023-04-10T09:09:45.411Z,23.30
2023-04-10T09:10:47.223Z,23.55
2023-04-10T09:11:55.496Z,23.60
2023-04-10T09:12:57.281Z,23.59
2023-04-10T09:13:59.077Z,23.79
2023-04-10T09:15:00.965Z,23.10
2023-04-10T09:16:03.196Z,23.12
2023-04-10T09:17:19.819Z,23.13
2023-04-10T09:18:21.724Z,22.94
2023-04-10T09:19:30.698Z,23.48
2023-04-10T09:20:32.758Z,23.16
2023-04-10T09:21:34.550Z,23.48
2023-04-10T09:22:36.534Z,23.65
2023-04-10T09:23:38.885Z,23.65
2023-04-10T09:24:43.008Z,23.60
2023-04-10T09:25:44.861Z,23.59
2023-04-10T09:26:46.714Z,23.52
2023-04-10T09:28:03.831Z,23.49
2023-04-10T09:29:11.019Z,23.62
2023-04-10T09:30:34.672Z,23.40
2023-04-10T09:31:38.390Z,23.48
2023-04-10T09:32:48.811Z,23.14
2023-04-10T09:34:07.738Z,23.40
2023-04-10T09:35:11.549Z,22.89
2023-04-10T09:36:14.047Z,23.28
2023-04-10T09:37:18.211Z,23.71
2023-04-10T09:38:21.646Z,23.10
2023-04-10T09:39:35.487Z,23.66
2023-04-10T09:40:37.381Z,23.76
2023-04-10T09:41:49.858Z,23.82
2023-04-10T09:42:52.493Z,23.42
2023-04-10T09:44:11.450Z,23.26
2023-04-10T09:45:13.236Z,23.44
2023-04-10T09:46:26.761Z,23.32
2023-04-10T09:47:28.963Z,23.65
2023-04-10T09:48:30.785Z,23.63
2023-04-10T09:49:45.658Z,23.47
2023-04-10T09:50:48.197Z,23.45
2023-04-10T09:51:50.061Z,23.53
2023-04-10T09:52:57.977Z,23.45
2023-04-10T09:53:59.800Z,23.31
2023-04-10T09:55:04.503Z,23.33
2023-04-10T09:56:06.849Z,23.48
2023-04-10T09:57:10.099Z,23.92
2023-04-10T09:58:12.816Z,23.77
2023-04-10T09:59:16.486Z,23.41
2023-04-10T10:00:18.701Z,23.35
2023-04-10T10:01:22.004Z,23.64
2023-04-10T10:02:25.948Z,23.87
2023-04-10T10:03:28.417Z,23.43
2023-04-10T10:04:30.660Z,23.76
2023-04-10T10:05:33.065Z,24.02
2023-04-10T10:06:35.269Z,23.51
2023-04-10T10:07:38.737Z,23.80
2023-04-10T10:08:40.745Z,23.48
2023-04-10T10:09:44.497Z,23.58
2023-04-10T10:10:57.962Z,23.42
2023-04-10T10:12:01.176Z,23.55
2023-04-10T10:13:03.897Z,23.44
2023-04-10T10:14:14.831Z,23.79
2023-04-10T10:15:58.245Z,23.53
2023-04-10T10:17:05.955Z,23.54
2023-04-10T10:18:37.510Z,23.48
2023-04-10T10:19:52.573Z,23.52
2023-04-10T10:20:54.518Z,23.24
2023-04-10T10:21:59.860Z,23.27
2023-04-10T10:23:04.476Z,23.65
2023-04-10T10:24:09.940Z,23.04
2023-04-10T10:25:13.661Z,23.54
2023-04-10T10:26:15.803Z,23.51
2023-04-10T10:27:19.462Z,23.26
2023-04-10T10:28:21.730Z,23.09
2023-04-10T10:29:24.330Z,23.54
2023-04-10T10:30:30.214Z,23.34
2023-04-10T10:31:35.316Z,23.43
2023-04-10T10:32:37.319Z,23.36
2023-04-10T10:33:40.194Z,23.39
2023-04-10T10:34:42.654Z,23.58
2023-04-10T10:35:45.038Z,23.06
2023-04-10T10:36:46.953Z,23.48
2023-04-10T10:37:49.023Z,23.77
2023-04-10T10:39:17.907Z,23.48
2023-04-10T10:40:47.453Z,23.00
2023-04-10T10:42:11.008Z,23.18
2023-04-10T10:43:27.557Z,23.37
2023-04-10T10:44:29.272Z,23.61
2023-04-10T10:46:06.774Z,23.32
2023-04-10T10:47:19.852Z,23.21
2023-04-10T10:48:21.776Z,22.82
2023-04-10T10:49:54.570Z,23.30
2023-04-10T10:50:59.179Z,22.86
2023-04-10T10:52:01.159Z,22.87
2023-04-10T10:53:03.030Z,23.49
2023-04-10T10:54:34.521Z,22.86
2023-04-10T10:55:39.372Z,22.84
2023-04-10T10:56:41.263Z,22.84
2023-04-10T10:57:46.784Z,23.18
2023-04-10T10:58:53.159Z,23.36
2023-04-10T10:59:55.845Z,23.01
2023-04-10T11:00:57.678Z,23.59
2023-04-10T11:02:20.050Z,22.96
2023-04-10T11:03:22.733Z,22.80
2023-04-10T11:04:47.642Z,23.28
2023-04-10T11:05:55.092Z,23.18
2023-04-10T11:06:57.011Z,22.75
2023-04-10T11:07:58.717Z,23.04
2023-04-10T11:09:00.643Z,23.31
2023-04-10T11:10:02.511Z,23.35
2023-04-10T11:11:08.828Z,23.13
2023-04-10T11:12:10.839Z,23.23
2023-04-10T11:13:19.782Z,23.47
2023-04-10T11:14:22.734Z,22.96
2023-04-10T11:15:26.024Z,22.76
2023-04-10T11:16:31.608Z,22.83
2023-04-10T11:17:54.348Z,22.95
2023-04-10T11:19:13.959Z,23.21
2023-04-10T11:20:19.496Z,22.58
2023-04-10T11:21:22.729Z,22.86
2023-04-10T11:22:25.279Z,22.69
2023-04-10T11:23:27.830Z,22.70
2023-04-10T11:24:30.604Z,22.92
2023-04-10T11:25:49.457Z,23.31
2023-04-10T11:26:51.510Z,23.01
2023-04-10T11:27:53.428Z,23.31
2023-04-10T11:28:55.604Z,22.80
2023-04-10T11:29:58.364Z,22.89
2023-04-10T11:31:22.899Z,23.26
2023-04-10T11:32:25.319Z,22.94
2023-04-10T11:33:27.143Z,22.83
2023-04-10T11:34:31.000Z,23.12
2023-04-10T11:35:33.473Z,22.70
2023-04-10T11:36:39.349Z,23.25
2023-04-10T11:37:41.120Z,23.21
2023-04-10T11:38:56.686Z,22.59
2023-04-10T11:40:06.049Z,23.19
2023-04-10T11:41:07.920Z,23.31
2023-04-10T11:42:11.749Z,22.84
2023-04-10T11:43:15.034Z,23.17
2023-04-10T11:44:39.246Z,23.07
2023-04-10T11:45:41.284Z,22.99
2023-04-10T11:46:47.451Z,23.09
2023-04-10T11:47:53.726Z,22.89
2023-04-10T11:49:03.881Z,23.27
2023-04-10T11:50:06.369Z,23.11
2023-04-10T11:51:10.121Z,23.27
2023-04-10T11:52:11.908Z,23.03
2023-04-10T11:53:21.628Z,23.44
2023-04-10T11:54:27.994Z,23.29
2023-04-10T11:55:39.682Z,22.90
2023-04-10T11:56:43.804Z,22.84
2023-04-10T11:57:46.116Z,23.01
2023-04-10T11:58:51.134Z,23.18
2023-04-10T11:59:52.985Z,23.13
2023-04-10T12:00:59.739Z,23.34
2023-04-10T12:02:09.571Z,23.20
2023-04-10T12:03:11.615Z,23.16
2023-04-10T12:04:24.408Z,23.00
2023-04-10T12:05:26.452Z,23.33
2023-04-10T12:06:28.723Z,23.37
2023-04-10T12:07:33.049Z,23.39
2023-04-10T12:08:36.959Z,23.39
2023-04-10T12:09:38.982Z,23.19
2023-04-10T12:10:47.409Z,23.48
2023-04-10T12:11:55.035Z,23.02
2023-04-10T12:12:56.847Z,22.86
2023-04-10T12:13:59.042Z,23.04
2023-04-10T12:15:00.894Z,22.94
2023-04-10T12:16:08.164Z,23.71
2023-04-10T12:17:11.923Z,23.10
2023-04-10T12:18:13.849Z,23.12
2023-04-10T12:19:18.898Z,23.43
2023-04-10T12:20:21.139Z,23.48
2023-04-10T12:21:23.065Z,22.85
2023-04-10T12:22:25.033Z,23.34
2023-04-10T12:23:28.342Z,23.71
2023-04-10T12:24:50.240Z,23.10
2023-04-10T12:25:53.269Z,23.19
2023-04-10T12:26:55.067Z,23.38
2023-04-10T12:27:56.866Z,23.02
2023-04-10T12:28:58.899Z,23.37
2023-04-10T12:30:07.703Z,23.24
2023-04-10T12:31:10.120Z,23.30
2023-04-10T12:32:12.168Z,23.20
2023-04-10T12:33:14.059Z,23.16
2023-04-10T12:34:18.976Z,23.56
2023-04-10T12:35:21.361Z,23.23
2023-04-10T12:36:24.824Z,23.06
2023-04-10T12:37:54.578Z,23.63
2023-04-10T12:38:57.683Z,23.57
2023-04-10T12:40:09.003Z,23.01
2023-04-10T12:41:12.053Z,23.30
2023-04-10T12:42:21.159Z,23.02
2023-04-10T12:43:37.879Z,23.74
2023-04-10T12:44:52.923Z,23.43
2023-04-10T12:45:55.764Z,23.01
2023-04-10T12:47:01.808Z,23.52
2023-04-10T12:48:03.950Z,23.90
2023-04-10T12:49:16.438Z,23.71
2023-04-10T12:50:20.987Z,23.27
2023-04-10T12:51:42.629Z,23.46
2023-04-10T12:53:03.227Z,23.17
2023-04-10T12:54:05.117Z,22.96
2023-04-10T12:55:21.324Z,23.13
2023-04-10T12:56:25.139Z,22.81
2023-04-10T12:57:27.703Z,23.15
2023-04-10T12:58:31.298Z,23.10
2023-04-10T12:59:33.718Z,23.35
2023-04-10T13:00:35.665Z,23.42
2023-04-10T13:01:39.208Z,23.82
2023-04-10T13:02:41.971Z,23.32
2023-04-10T13:03:44.113Z,23.28
2023-04-10T13:04:46.904Z,23.25
2023-04-10T13:05:48.817Z,23.16
2023-04-10T13:06:53.469Z,22.96
2023-04-10T13:07:55.266Z,23.57
2023-04-10T13:08:57.212Z,23.11
2023-04-10T13:09:59.703Z,23.67
2023-04-10T13:11:04.591Z,23.00
2023-04-10T13:12:07.002Z,23.62
2023-04-10T13:13:08.876Z,23.17
2023-04-10T13:14:11.283Z,23.62
2023-04-10T13:15:13.142Z,23.60
2023-04-10T13:16:16.001Z,23.93
2023-04-10T13:17:17.791Z,23.31
2023-04-10T13:18:19.555Z,23.98
2023-04-10T13:19:21.312Z,23.71
2023-04-10T13:20:23.528Z,23.79
2023-04-10T13:21:27.047Z,23.48
2023-04-10T13:22:28.825Z,23.76
2023-04-10T13:23:30.771Z,23.74
2023-04-10T13:24:32.679Z,23.34
2023-04-10T13:25:39.594Z,23.09
2023-04-10T13:26:41.570Z,23.63
2023-04-10T13:27:43.389Z,23.56
2023-04-10T13:28:45.235Z,23.21
2023-04-10T13:29:47.122Z,23.74
2023-04-10T13:30:49.056Z,23.36
2023-04-10T13:31:50.977Z,23.63
2023-04-10T13:32:52.938Z,23.45
2023-04-10T13:33:54.759Z,23.27
2023-04-10T13:34:57.397Z,23.86
2023-04-10T13:35:59.273Z,23.72
2023-04-10T13:37:01.459Z,23.59
2023-04-10T13:38:04.081Z,23.66
2023-04-10T13:39:05.904Z,23.44
2023-04-10T13:40:08.567Z,23.15
2023-04-10T13:41:10.528Z,23.05
2023-04-10T13:42:13.892Z,23.45
2023-04-10T13:43:15.673Z,23.09
2023-04-10T13:44:17.645Z,23.08
2023-04-10T13:45:19.662Z,23.65
2023-04-10T13:46:21.506Z,22.96
2023-04-10T13:47:23.377Z,23.64
2023-04-10T13:48:37.312Z,23.10
2023-04-10T13:49:42.183Z,23.31
2023-04-10T13:50:43.990Z,22.71
2023-04-10T13:51:46.587Z,23.05
2023-04-10T13:52:48.436Z,23.09
2023-04-10T13:53:50.889Z,23.34
2023-04-10T13:54:52.743Z,23.42
2023-04-10T13:55:54.502Z,23.02
2023-04-10T13:56:57.630Z,22.93
2023-04-10T13:57:59.545Z,22.84
2023-04-10T13:59:01.365Z,23.39
2023-04-10T14:00:04.595Z,22.84
2023-04-10T14:01:14.474Z,22.72
2023-04-10T14:02:16.727Z,22.98
2023-04-10T14:03:18.623Z,22.85
2023-04-10T14:04:20.735Z,23.24
2023-04-10T14:05:22.522Z,22.87
2023-04-10T14:06:24.431Z,23.42
2023-04-10T14:07:26.344Z,23.31
2023-04-10T14:08:28.130Z,23.31
2023-04-10T14:09:29.896Z,22.74
2023-04-10T14:10:31.709Z,23.13
2023-04-10T14:11:33.500Z,23.38
2023-04-10T14:12:36.284Z,23.20
2023-04-10T14:13:39.595Z,23.38
2023-04-10T14:14:41.361Z,22.88
2023-04-10T14:15:43.428Z,22.92
2023-04-10T14:16:45.380Z,23.03
2023-04-10T14:17:47.215Z,23.09
2023-04-10T14:18:49.130Z,23.44
2023-04-10T14:19:52.450Z,23.37
2023-04-10T14:20:54.589Z,23.09